sensor_id;sensor_type;location;lat;lon;timestamp;temperature;humidity
20005;DHT22;68409;45.498;-73.582;2023-03-13T00:03:55;3.80;51.50
20005;DHT22;68409;45.498;-73.582;2023-03-13T00:06:30;3.90;51.90
20005;DHT22;68409;45.498;-73.582;2023-03-13T00:08:59;3.80;52.00
20005;DHT22;68409;45.498;-73.582;2023-03-13T00:11:27;3.90;52.20
20005;DHT22;68409;45.498;-73.582;2023-03-13T00:13:58;3.80;52.00
20005;DHT22;68409;45.498;-73.582;2023-03-13T00:16:26;3.70;52.20
20005;DHT22;68409;45.498;-73.582;2023-03-13T00:18:54;3.70;52.10
20005;DHT22;68409;45.498;-73.582;2023-03-13T00:21:23;3.70;52.00
20005;DHT22;68409;45.498;-73.582;2023-03-13T00:23:49;3.60;52.10
20005;DHT22;68409;45.498;-73.582;2023-03-13T00:26:21;3.70;52.20
20005;DHT22;68409;45.498;-73.582;2023-03-13T00:28:48;3.70;52.80
20005;DHT22;68409;45.498;-73.582;2023-03-13T00:31:25;3.60;52.90
20005;DHT22;68409;45.498;-73.582;2023-03-13T00:33:53;3.60;52.60
20005;DHT22;68409;45.498;-73.582;2023-03-13T00:36:23;3.50;52.90
20005;DHT22;68409;45.498;-73.582;2023-03-13T00:38:50;3.60;52.80
20005;DHT22;68409;45.498;-73.582;2023-03-13T00:41:19;3.50;52.90
20005;DHT22;68409;45.498;-73.582;2023-03-13T00:43:47;3.50;53.00
20005;DHT22;68409;45.498;-73.582;2023-03-13T00:46:15;3.50;53.10
20005;DHT22;68409;45.498;-73.582;2023-03-13T00:48:42;3.40;53.10
20005;DHT22;68409;45.498;-73.582;2023-03-13T00:51:09;3.40;53.40
20005;DHT22;68409;45.498;-73.582;2023-03-13T00:53:35;3.40;53.40
20005;DHT22;68409;45.498;-73.582;2023-03-13T00:56:07;3.40;53.30
20005;DHT22;68409;45.498;-73.582;2023-03-13T00:58:36;3.30;53.60
20005;DHT22;68409;45.498;-73.582;2023-03-13T01:01:16;3.30;53.40
20005;DHT22;68409;45.498;-73.582;2023-03-13T01:03:46;3.40;53.70
20005;DHT22;68409;45.498;-73.582;2023-03-13T01:06:15;3.40;53.80
20005;DHT22;68409;45.498;-73.582;2023-03-13T01:08:41;3.40;53.70
20005;DHT22;68409;45.498;-73.582;2023-03-13T01:11:10;3.40;53.70
20005;DHT22;68409;45.498;-73.582;2023-03-13T01:13:36;3.40;53.90
20005;DHT22;68409;45.498;-73.582;2023-03-13T01:16:08;3.40;54.00
20005;DHT22;68409;45.498;-73.582;2023-03-13T01:18:36;3.30;53.80
20005;DHT22;68409;45.498;-73.582;2023-03-13T01:21:03;3.30;53.70
20005;DHT22;68409;45.498;-73.582;2023-03-13T01:23:29;3.40;53.50
20005;DHT22;68409;45.498;-73.582;2023-03-13T01:25:55;3.40;53.70
20005;DHT22;68409;45.498;-73.582;2023-03-13T01:28:23;3.40;53.90
20005;DHT22;68409;45.498;-73.582;2023-03-13T01:30:49;3.40;53.60
20005;DHT22;68409;45.498;-73.582;2023-03-13T01:33:16;3.50;53.70
20005;DHT22;68409;45.498;-73.582;2023-03-13T01:35:42;3.60;53.30
20005;DHT22;68409;45.498;-73.582;2023-03-13T01:38:09;3.50;53.00
20005;DHT22;68409;45.498;-73.582;2023-03-13T01:40:39;3.50;53.20
20005;DHT22;68409;45.498;-73.582;2023-03-13T01:43:32;3.50;53.10
20005;DHT22;68409;45.498;-73.582;2023-03-13T01:46:15;3.50;52.70
20005;DHT22;68409;45.498;-73.582;2023-03-13T01:48:56;3.40;52.80
20005;DHT22;68409;45.498;-73.582;2023-03-13T01:51:47;3.40;52.70
20005;DHT22;68409;45.498;-73.582;2023-03-13T01:54:24;3.30;52.50
20005;DHT22;68409;45.498;-73.582;2023-03-13T01:59:26;3.40;52.70
20005;DHT22;68409;45.498;-73.582;2023-03-13T02:01:55;3.40;52.40
20005;DHT22;68409;45.498;-73.582;2023-03-13T02:04:23;3.40;52.60
20005;DHT22;68409;45.498;-73.582;2023-03-13T02:06:52;3.40;52.70
20005;DHT22;68409;45.498;-73.582;2023-03-13T02:09:23;3.50;52.10
20005;DHT22;68409;45.498;-73.582;2023-03-13T02:12:01;3.40;52.30
20005;DHT22;68409;45.498;-73.582;2023-03-13T02:14:31;3.40;52.80
20005;DHT22;68409;45.498;-73.582;2023-03-13T02:16:59;3.40;53.00
20005;DHT22;68409;45.498;-73.582;2023-03-13T02:19:47;3.40;52.60
20005;DHT22;68409;45.498;-73.582;2023-03-13T02:22:33;3.40;52.40
20005;DHT22;68409;45.498;-73.582;2023-03-13T02:28:02;3.40;52.80
20005;DHT22;68409;45.498;-73.582;2023-03-13T02:30:29;3.40;52.30
20005;DHT22;68409;45.498;-73.582;2023-03-13T02:32:56;3.50;52.10
20005;DHT22;68409;45.498;-73.582;2023-03-13T02:35:23;3.40;52.60
20005;DHT22;68409;45.498;-73.582;2023-03-13T02:37:54;3.40;53.00
20005;DHT22;68409;45.498;-73.582;2023-03-13T02:40:41;3.30;53.10
20005;DHT22;68409;45.498;-73.582;2023-03-13T02:43:20;3.30;53.40
20005;DHT22;68409;45.498;-73.582;2023-03-13T02:46:10;3.30;53.70
20005;DHT22;68409;45.498;-73.582;2023-03-13T02:48:42;3.30;53.50
20005;DHT22;68409;45.498;-73.582;2023-03-13T02:54:02;3.20;53.70
20005;DHT22;68409;45.498;-73.582;2023-03-13T02:56:32;3.30;53.80
20005;DHT22;68409;45.498;-73.582;2023-03-13T02:58:59;3.30;53.70
20005;DHT22;68409;45.498;-73.582;2023-03-13T03:01:25;3.30;53.80
20005;DHT22;68409;45.498;-73.582;2023-03-13T03:03:51;3.20;54.00
20005;DHT22;68409;45.498;-73.582;2023-03-13T03:06:17;3.20;54.00
20005;DHT22;68409;45.498;-73.582;2023-03-13T03:08:43;3.30;54.00
20005;DHT22;68409;45.498;-73.582;2023-03-13T03:11:10;3.30;54.00
20005;DHT22;68409;45.498;-73.582;2023-03-13T03:13:37;3.30;53.90
20005;DHT22;68409;45.498;-73.582;2023-03-13T03:16:11;3.30;54.10
20005;DHT22;68409;45.498;-73.582;2023-03-13T03:18:38;3.30;54.00
20005;DHT22;68409;45.498;-73.582;2023-03-13T03:21:05;3.30;54.00
20005;DHT22;68409;45.498;-73.582;2023-03-13T03:23:32;3.30;53.80
20005;DHT22;68409;45.498;-73.582;2023-03-13T03:25:59;3.30;53.80
20005;DHT22;68409;45.498;-73.582;2023-03-13T03:28:25;3.20;53.90
20005;DHT22;68409;45.498;-73.582;2023-03-13T03:30:52;3.20;54.00
20005;DHT22;68409;45.498;-73.582;2023-03-13T03:33:20;3.20;54.10
20005;DHT22;68409;45.498;-73.582;2023-03-13T03:35:46;3.20;54.10
20005;DHT22;68409;45.498;-73.582;2023-03-13T03:38:12;3.30;54.10
20005;DHT22;68409;45.498;-73.582;2023-03-13T03:40:38;3.20;54.20
20005;DHT22;68409;45.498;-73.582;2023-03-13T03:43:04;3.30;54.30
20005;DHT22;68409;45.498;-73.582;2023-03-13T03:45:30;3.30;54.20
20005;DHT22;68409;45.498;-73.582;2023-03-13T03:47:56;3.30;54.00
20005;DHT22;68409;45.498;-73.582;2023-03-13T03:50:26;3.30;54.00
20005;DHT22;68409;45.498;-73.582;2023-03-13T03:52:52;3.30;54.10
20005;DHT22;68409;45.498;-73.582;2023-03-13T03:55:19;3.40;54.00
20005;DHT22;68409;45.498;-73.582;2023-03-13T03:57:45;3.40;54.10
20005;DHT22;68409;45.498;-73.582;2023-03-13T04:00:12;3.40;53.50
20005;DHT22;68409;45.498;-73.582;2023-03-13T04:02:40;3.40;53.30
20005;DHT22;68409;45.498;-73.582;2023-03-13T04:05:06;3.40;53.30
20005;DHT22;68409;45.498;-73.582;2023-03-13T04:07:32;3.50;53.60
20005;DHT22;68409;45.498;-73.582;2023-03-13T04:09:59;3.50;53.90
20005;DHT22;68409;45.498;-73.582;2023-03-13T04:12:25;3.60;53.00
20005;DHT22;68409;45.498;-73.582;2023-03-13T04:14:51;3.60;53.30
20005;DHT22;68409;45.498;-73.582;2023-03-13T04:17:17;3.50;53.50
20005;DHT22;68409;45.498;-73.582;2023-03-13T04:19:43;3.60;53.30
20005;DHT22;68409;45.498;-73.582;2023-03-13T04:22:09;3.70;52.40
20005;DHT22;68409;45.498;-73.582;2023-03-13T04:24:35;3.80;52.50
20005;DHT22;68409;45.498;-73.582;2023-03-13T04:27:01;3.80;52.60
20005;DHT22;68409;45.498;-73.582;2023-03-13T04:29:28;3.80;52.50
20005;DHT22;68409;45.498;-73.582;2023-03-13T04:31:54;3.80;51.90
20005;DHT22;68409;45.498;-73.582;2023-03-13T04:34:20;3.80;52.10
20005;DHT22;68409;45.498;-73.582;2023-03-13T04:36:46;3.80;52.20
20005;DHT22;68409;45.498;-73.582;2023-03-13T04:39:13;3.90;52.30
20005;DHT22;68409;45.498;-73.582;2023-03-13T04:41:39;3.90;53.00
20005;DHT22;68409;45.498;-73.582;2023-03-13T04:44:05;4.00;52.70
20005;DHT22;68409;45.498;-73.582;2023-03-13T04:46:31;4.00;52.80
20005;DHT22;68409;45.498;-73.582;2023-03-13T04:48:57;3.90;51.90
20005;DHT22;68409;45.498;-73.582;2023-03-13T04:51:23;4.00;52.00
20005;DHT22;68409;45.498;-73.582;2023-03-13T04:53:50;4.00;52.50
20005;DHT22;68409;45.498;-73.582;2023-03-13T04:56:22;4.00;53.00
20005;DHT22;68409;45.498;-73.582;2023-03-13T04:58:49;3.90;52.90
20005;DHT22;68409;45.498;-73.582;2023-03-13T05:01:15;3.90;54.00
20005;DHT22;68409;45.498;-73.582;2023-03-13T05:03:41;3.80;53.90
20005;DHT22;68409;45.498;-73.582;2023-03-13T05:06:07;3.70;53.50
20005;DHT22;68409;45.498;-73.582;2023-03-13T05:08:33;3.80;53.90
20005;DHT22;68409;45.498;-73.582;2023-03-13T05:11:01;3.80;53.20
20005;DHT22;68409;45.498;-73.582;2023-03-13T05:13:27;3.80;53.00
20005;DHT22;68409;45.498;-73.582;2023-03-13T05:15:53;3.80;53.20
20005;DHT22;68409;45.498;-73.582;2023-03-13T05:18:20;3.80;52.90
20005;DHT22;68409;45.498;-73.582;2023-03-13T05:20:46;3.80;52.80
20005;DHT22;68409;45.498;-73.582;2023-03-13T05:23:12;3.70;53.40
20005;DHT22;68409;45.498;-73.582;2023-03-13T05:25:38;3.70;53.30
20005;DHT22;68409;45.498;-73.582;2023-03-13T05:28:04;3.70;53.70
20005;DHT22;68409;45.498;-73.582;2023-03-13T05:30:30;3.60;53.30
20005;DHT22;68409;45.498;-73.582;2023-03-13T05:32:56;3.70;52.80
20005;DHT22;68409;45.498;-73.582;2023-03-13T05:35:22;3.60;52.50
20005;DHT22;68409;45.498;-73.582;2023-03-13T05:37:49;3.50;52.20
20005;DHT22;68409;45.498;-73.582;2023-03-13T05:40:15;3.50;52.20
20005;DHT22;68409;45.498;-73.582;2023-03-13T05:42:41;3.40;52.20
20005;DHT22;68409;45.498;-73.582;2023-03-13T05:45:08;3.50;52.30
20005;DHT22;68409;45.498;-73.582;2023-03-13T05:47:35;3.50;52.30
20005;DHT22;68409;45.498;-73.582;2023-03-13T05:50:02;3.40;51.90
20005;DHT22;68409;45.498;-73.582;2023-03-13T05:52:29;3.20;52.00
20005;DHT22;68409;45.498;-73.582;2023-03-13T05:54:55;3.20;52.30
20005;DHT22;68409;45.498;-73.582;2023-03-13T05:57:22;3.20;52.80
20005;DHT22;68409;45.498;-73.582;2023-03-13T05:59:48;3.20;53.00
20005;DHT22;68409;45.498;-73.582;2023-03-13T06:02:16;3.20;53.40
20005;DHT22;68409;45.498;-73.582;2023-03-13T06:04:42;3.30;53.20
20005;DHT22;68409;45.498;-73.582;2023-03-13T06:07:08;3.10;52.70
20005;DHT22;68409;45.498;-73.582;2023-03-13T06:09:34;3.00;53.10
20005;DHT22;68409;45.498;-73.582;2023-03-13T06:12:00;3.10;53.30
20005;DHT22;68409;45.498;-73.582;2023-03-13T06:14:26;3.10;53.10
20005;DHT22;68409;45.498;-73.582;2023-03-13T06:16:55;3.20;53.00
20005;DHT22;68409;45.498;-73.582;2023-03-13T06:19:23;3.10;53.30
20005;DHT22;68409;45.498;-73.582;2023-03-13T06:21:50;3.10;53.30
20005;DHT22;68409;45.498;-73.582;2023-03-13T06:24:16;3.00;53.50
20005;DHT22;68409;45.498;-73.582;2023-03-13T06:26:42;3.00;53.80
20005;DHT22;68409;45.498;-73.582;2023-03-13T06:29:10;3.00;54.00
20005;DHT22;68409;45.498;-73.582;2023-03-13T06:31:36;3.00;53.80
20005;DHT22;68409;45.498;-73.582;2023-03-13T06:34:02;3.00;54.10
20005;DHT22;68409;45.498;-73.582;2023-03-13T06:36:28;3.00;54.00
20005;DHT22;68409;45.498;-73.582;2023-03-13T06:38:54;3.00;54.30
20005;DHT22;68409;45.498;-73.582;2023-03-13T06:41:20;2.80;54.10
20005;DHT22;68409;45.498;-73.582;2023-03-13T06:43:47;2.80;54.80
20005;DHT22;68409;45.498;-73.582;2023-03-13T06:46:18;2.80;55.60
20005;DHT22;68409;45.498;-73.582;2023-03-13T06:48:45;2.90;55.40
20005;DHT22;68409;45.498;-73.582;2023-03-13T06:51:13;2.90;54.90
20005;DHT22;68409;45.498;-73.582;2023-03-13T06:53:39;2.70;54.70
20005;DHT22;68409;45.498;-73.582;2023-03-13T06:56:07;2.80;54.70
20005;DHT22;68409;45.498;-73.582;2023-03-13T06:58:34;2.60;54.90
20005;DHT22;68409;45.498;-73.582;2023-03-13T07:01:11;2.50;55.00
20005;DHT22;68409;45.498;-73.582;2023-03-13T07:03:37;2.60;54.80
20005;DHT22;68409;45.498;-73.582;2023-03-13T07:06:04;2.60;54.80
20005;DHT22;68409;45.498;-73.582;2023-03-13T07:08:31;2.60;54.90
20005;DHT22;68409;45.498;-73.582;2023-03-13T07:11:00;2.50;54.80
20005;DHT22;68409;45.498;-73.582;2023-03-13T07:13:28;2.40;54.90
20005;DHT22;68409;45.498;-73.582;2023-03-13T07:15:54;2.60;54.90
20005;DHT22;68409;45.498;-73.582;2023-03-13T07:18:21;2.50;54.90
20005;DHT22;68409;45.498;-73.582;2023-03-13T07:20:55;2.60;54.90
20005;DHT22;68409;45.498;-73.582;2023-03-13T07:23:22;2.70;55.00
20005;DHT22;68409;45.498;-73.582;2023-03-13T07:26:12;2.80;54.90
20005;DHT22;68409;45.498;-73.582;2023-03-13T07:28:39;2.80;54.80
20005;DHT22;68409;45.498;-73.582;2023-03-13T07:31:06;2.80;54.80
20005;DHT22;68409;45.498;-73.582;2023-03-13T07:33:33;2.80;55.30
20005;DHT22;68409;45.498;-73.582;2023-03-13T07:35:59;2.80;54.70
20005;DHT22;68409;45.498;-73.582;2023-03-13T07:38:25;2.80;54.90
20005;DHT22;68409;45.498;-73.582;2023-03-13T07:40:54;2.80;54.90
20005;DHT22;68409;45.498;-73.582;2023-03-13T07:43:21;2.80;54.90
20005;DHT22;68409;45.498;-73.582;2023-03-13T07:46:02;2.90;54.70
20005;DHT22;68409;45.498;-73.582;2023-03-13T07:48:36;2.80;55.00
20005;DHT22;68409;45.498;-73.582;2023-03-13T07:51:04;2.90;54.80
20005;DHT22;68409;45.498;-73.582;2023-03-13T07:53:31;2.80;55.20
20005;DHT22;68409;45.498;-73.582;2023-03-13T07:56:18;2.50;55.40
20005;DHT22;68409;45.498;-73.582;2023-03-13T07:58:45;2.50;54.90
20005;DHT22;68409;45.498;-73.582;2023-03-13T08:01:17;2.10;55.30
20005;DHT22;68409;45.498;-73.582;2023-03-13T08:03:44;2.10;56.10
20005;DHT22;68409;45.498;-73.582;2023-03-13T08:06:13;2.20;56.30
20005;DHT22;68409;45.498;-73.582;2023-03-13T08:08:41;2.30;56.20
20005;DHT22;68409;45.498;-73.582;2023-03-13T08:11:13;2.30;56.20
20005;DHT22;68409;45.498;-73.582;2023-03-13T08:13:40;2.40;56.20
20005;DHT22;68409;45.498;-73.582;2023-03-13T08:16:12;2.40;56.30
20005;DHT22;68409;45.498;-73.582;2023-03-13T08:18:41;2.30;56.50
20005;DHT22;68409;45.498;-73.582;2023-03-13T08:21:12;2.40;56.50
20005;DHT22;68409;45.498;-73.582;2023-03-13T08:23:39;2.50;56.30
20005;DHT22;68409;45.498;-73.582;2023-03-13T08:26:13;2.50;56.30
20005;DHT22;68409;45.498;-73.582;2023-03-13T08:28:40;2.50;56.40
20005;DHT22;68409;45.498;-73.582;2023-03-13T08:31:15;2.50;56.60
20005;DHT22;68409;45.498;-73.582;2023-03-13T08:33:42;2.50;56.60
20005;DHT22;68409;45.498;-73.582;2023-03-13T08:36:21;2.50;56.70
20005;DHT22;68409;45.498;-73.582;2023-03-13T08:38:48;2.50;56.80
20005;DHT22;68409;45.498;-73.582;2023-03-13T08:41:20;2.60;56.80
20005;DHT22;68409;45.498;-73.582;2023-03-13T08:43:47;2.40;56.70
20005;DHT22;68409;45.498;-73.582;2023-03-13T08:46:13;2.40;56.90
20005;DHT22;68409;45.498;-73.582;2023-03-13T08:48:40;2.50;56.90
20005;DHT22;68409;45.498;-73.582;2023-03-13T08:51:12;2.50;56.30
20005;DHT22;68409;45.498;-73.582;2023-03-13T08:53:40;2.40;56.50
20005;DHT22;68409;45.498;-73.582;2023-03-13T08:56:07;2.40;56.50
20005;DHT22;68409;45.498;-73.582;2023-03-13T08:58:34;2.40;56.60
20005;DHT22;68409;45.498;-73.582;2023-03-13T09:01:13;2.40;56.80
20005;DHT22;68409;45.498;-73.582;2023-03-13T09:03:40;2.40;56.90
20005;DHT22;68409;45.498;-73.582;2023-03-13T09:06:07;2.50;56.90
20005;DHT22;68409;45.498;-73.582;2023-03-13T09:08:34;2.60;56.80
20005;DHT22;68409;45.498;-73.582;2023-03-13T09:11:03;2.60;56.90
20005;DHT22;68409;45.498;-73.582;2023-03-13T09:13:31;2.60;56.70
20005;DHT22;68409;45.498;-73.582;2023-03-13T09:16:00;2.40;56.90
20005;DHT22;68409;45.498;-73.582;2023-03-13T09:18:27;2.50;57.00
20005;DHT22;68409;45.498;-73.582;2023-03-13T09:20:53;2.50;57.10
20005;DHT22;68409;45.498;-73.582;2023-03-13T09:23:21;2.50;57.10
20005;DHT22;68409;45.498;-73.582;2023-03-13T09:25:50;2.30;57.10
20005;DHT22;68409;45.498;-73.582;2023-03-13T09:28:17;2.10;57.30
20005;DHT22;68409;45.498;-73.582;2023-03-13T09:30:44;2.30;57.80
20005;DHT22;68409;45.498;-73.582;2023-03-13T09:33:11;2.10;58.10
20005;DHT22;68409;45.498;-73.582;2023-03-13T09:35:40;2.00;57.90
20005;DHT22;68409;45.498;-73.582;2023-03-13T09:38:06;2.10;58.20
20005;DHT22;68409;45.498;-73.582;2023-03-13T09:40:43;2.30;58.30
20005;DHT22;68409;45.498;-73.582;2023-03-13T09:46:25;2.20;58.70
20005;DHT22;68409;45.498;-73.582;2023-03-13T09:49:04;2.10;58.80
20005;DHT22;68409;45.498;-73.582;2023-03-13T09:51:37;1.90;58.90
20005;DHT22;68409;45.498;-73.582;2023-03-13T09:56:46;2.00;59.30
20005;DHT22;68409;45.498;-73.582;2023-03-13T10:04:50;2.20;59.40
20005;DHT22;68409;45.498;-73.582;2023-03-13T10:07:17;2.30;59.70
20005;DHT22;68409;45.498;-73.582;2023-03-13T10:09:45;2.30;59.60
20005;DHT22;68409;45.498;-73.582;2023-03-13T10:12:19;2.20;59.80
20005;DHT22;68409;45.498;-73.582;2023-03-13T10:17:38;2.30;60.10
20005;DHT22;68409;45.498;-73.582;2023-03-13T10:20:26;2.30;60.20
20005;DHT22;68409;45.498;-73.582;2023-03-13T10:25:38;2.00;61.10
20005;DHT22;68409;45.498;-73.582;2023-03-13T10:28:08;2.00;61.50
20005;DHT22;68409;45.498;-73.582;2023-03-13T10:30:36;2.00;61.80
20005;DHT22;68409;45.498;-73.582;2023-03-13T10:35:42;1.90;62.20
20005;DHT22;68409;45.498;-73.582;2023-03-13T10:38:17;1.90;62.80
20005;DHT22;68409;45.498;-73.582;2023-03-13T10:40:59;1.80;63.30
20005;DHT22;68409;45.498;-73.582;2023-03-13T10:43:27;1.90;63.40
20005;DHT22;68409;45.498;-73.582;2023-03-13T10:45:53;2.10;63.50
20005;DHT22;68409;45.498;-73.582;2023-03-13T10:48:28;2.00;63.50
20005;DHT22;68409;45.498;-73.582;2023-03-13T10:50:56;2.10;63.80
20005;DHT22;68409;45.498;-73.582;2023-03-13T10:56:12;2.10;64.40
20005;DHT22;68409;45.498;-73.582;2023-03-13T10:58:42;2.30;64.30
20005;DHT22;68409;45.498;-73.582;2023-03-13T11:01:28;2.40;64.20
20005;DHT22;68409;45.498;-73.582;2023-03-13T11:03:57;2.30;64.40
20005;DHT22;68409;45.498;-73.582;2023-03-13T11:06:28;2.40;64.70
20005;DHT22;68409;45.498;-73.582;2023-03-13T11:09:13;2.40;65.10
20005;DHT22;68409;45.498;-73.582;2023-03-13T11:11:45;2.50;65.40
20005;DHT22;68409;45.498;-73.582;2023-03-13T11:14:18;2.60;65.00
20005;DHT22;68409;45.498;-73.582;2023-03-13T11:16:53;2.70;65.20
20005;DHT22;68409;45.498;-73.582;2023-03-13T11:22:37;2.70;65.80
20005;DHT22;68409;45.498;-73.582;2023-03-13T11:31:05;2.70;66.70
20005;DHT22;68409;45.498;-73.582;2023-03-13T11:41:45;2.90;66.70
20005;DHT22;68409;45.498;-73.582;2023-03-13T11:44:28;3.00;66.70
20005;DHT22;68409;45.498;-73.582;2023-03-13T12:01:19;2.80;68.30
20005;DHT22;68409;45.498;-73.582;2023-03-13T12:09:22;2.90;68.50
20005;DHT22;68409;45.498;-73.582;2023-03-13T12:17:33;3.00;68.50
20005;DHT22;68409;45.498;-73.582;2023-03-13T12:20:24;3.20;68.70
20005;DHT22;68409;45.498;-73.582;2023-03-13T12:25:44;3.30;68.20
20005;DHT22;68409;45.498;-73.582;2023-03-13T12:28:36;3.40;68.50
20005;DHT22;68409;45.498;-73.582;2023-03-13T12:31:35;3.30;68.30
20005;DHT22;68409;45.498;-73.582;2023-03-13T12:37:20;3.40;68.70
20005;DHT22;68409;45.498;-73.582;2023-03-13T12:43:11;3.40;68.60
20005;DHT22;68409;45.498;-73.582;2023-03-13T12:54:26;3.60;68.50
20005;DHT22;68409;45.498;-73.582;2023-03-13T12:59:54;3.40;69.20
20005;DHT22;68409;45.498;-73.582;2023-03-13T13:02:26;3.40;69.20
20005;DHT22;68409;45.498;-73.582;2023-03-13T13:04:54;3.40;69.40
20005;DHT22;68409;45.498;-73.582;2023-03-13T13:12:36;3.50;69.40
20005;DHT22;68409;45.498;-73.582;2023-03-13T13:17:42;3.70;69.00
20005;DHT22;68409;45.498;-73.582;2023-03-13T13:22:56;3.90;68.40
20005;DHT22;68409;45.498;-73.582;2023-03-13T13:25:31;3.70;68.20
20005;DHT22;68409;45.498;-73.582;2023-03-13T13:28:33;3.70;68.50
20005;DHT22;68409;45.498;-73.582;2023-03-13T13:31:00;3.70;68.80
20005;DHT22;68409;45.498;-73.582;2023-03-13T13:33:33;3.70;68.80
20005;DHT22;68409;45.498;-73.582;2023-03-13T13:38:36;3.90;68.60
20005;DHT22;68409;45.498;-73.582;2023-03-13T13:41:21;3.90;68.40
20005;DHT22;68409;45.498;-73.582;2023-03-13T13:43:49;3.90;68.10
20005;DHT22;68409;45.498;-73.582;2023-03-13T13:46:29;3.90;68.40
20005;DHT22;68409;45.498;-73.582;2023-03-13T13:51:40;3.80;68.70
20005;DHT22;68409;45.498;-73.582;2023-03-13T13:56:57;3.90;68.30
20005;DHT22;68409;45.498;-73.582;2023-03-13T13:59:44;3.80;68.10
20005;DHT22;68409;45.498;-73.582;2023-03-13T14:12:37;4.20;68.50
20005;DHT22;68409;45.498;-73.582;2023-03-13T14:17:40;4.10;68.20
20005;DHT22;68409;45.498;-73.582;2023-03-13T14:20:22;4.20;68.10
20005;DHT22;68409;45.498;-73.582;2023-03-13T14:22:50;4.20;68.30
20005;DHT22;68409;45.498;-73.582;2023-03-13T14:25:22;4.30;67.90
20005;DHT22;68409;45.498;-73.582;2023-03-13T14:27:50;4.40;67.80
20005;DHT22;68409;45.498;-73.582;2023-03-13T14:30:18;4.50;67.20
20005;DHT22;68409;45.498;-73.582;2023-03-13T14:32:45;4.50;67.30
20005;DHT22;68409;45.498;-73.582;2023-03-13T14:35:16;4.60;67.20
20005;DHT22;68409;45.498;-73.582;2023-03-13T14:37:46;4.70;66.50
20005;DHT22;68409;45.498;-73.582;2023-03-13T14:40:22;4.40;67.30
20005;DHT22;68409;45.498;-73.582;2023-03-13T14:42:54;4.50;67.20
20005;DHT22;68409;45.498;-73.582;2023-03-13T14:45:32;4.60;66.60
20005;DHT22;68409;45.498;-73.582;2023-03-13T14:50:52;4.60;66.60
20005;DHT22;68409;45.498;-73.582;2023-03-13T14:53:21;4.70;66.40
20005;DHT22;68409;45.498;-73.582;2023-03-13T14:56:07;4.80;66.40
20005;DHT22;68409;45.498;-73.582;2023-03-13T14:58:34;5.10;65.60
20005;DHT22;68409;45.498;-73.582;2023-03-13T15:01:22;5.20;64.80
20005;DHT22;68409;45.498;-73.582;2023-03-13T15:03:49;5.30;64.70
20005;DHT22;68409;45.498;-73.582;2023-03-13T15:06:24;5.30;64.60
20005;DHT22;68409;45.498;-73.582;2023-03-13T15:11:38;5.30;64.70
20005;DHT22;68409;45.498;-73.582;2023-03-13T15:14:38;5.10;65.30
20005;DHT22;68409;45.498;-73.582;2023-03-13T15:17:31;5.20;65.70
20005;DHT22;68409;45.498;-73.582;2023-03-13T15:19:58;5.40;65.30
20005;DHT22;68409;45.498;-73.582;2023-03-13T15:22:36;5.50;65.10
20005;DHT22;68409;45.498;-73.582;2023-03-13T15:25:05;5.60;65.20
20005;DHT22;68409;45.498;-73.582;2023-03-13T15:27:31;5.60;64.40
20005;DHT22;68409;45.498;-73.582;2023-03-13T15:29:58;5.60;64.70
20005;DHT22;68409;45.498;-73.582;2023-03-13T15:32:25;5.70;64.10
20005;DHT22;68409;45.498;-73.582;2023-03-13T15:34:51;5.70;64.40
20005;DHT22;68409;45.498;-73.582;2023-03-13T15:37:18;5.70;65.00
20005;DHT22;68409;45.498;-73.582;2023-03-13T15:39:44;5.60;65.10
20005;DHT22;68409;45.498;-73.582;2023-03-13T15:42:10;6.00;64.30
20005;DHT22;68409;45.498;-73.582;2023-03-13T15:44:36;6.00;64.30
20005;DHT22;68409;45.498;-73.582;2023-03-13T15:47:03;6.00;64.60
20005;DHT22;68409;45.498;-73.582;2023-03-13T15:49:44;6.00;64.80
20005;DHT22;68409;45.498;-73.582;2023-03-13T15:52:20;6.10;65.00
20005;DHT22;68409;45.498;-73.582;2023-03-13T15:54:50;5.70;65.30
20005;DHT22;68409;45.498;-73.582;2023-03-13T15:57:26;5.70;66.10
20005;DHT22;68409;45.498;-73.582;2023-03-13T15:59:55;5.80;66.10
20005;DHT22;68409;45.498;-73.582;2023-03-13T16:02:23;5.90;66.40
20005;DHT22;68409;45.498;-73.582;2023-03-13T16:04:50;5.80;66.50
20005;DHT22;68409;45.498;-73.582;2023-03-13T16:07:18;5.50;67.00
20005;DHT22;68409;45.498;-73.582;2023-03-13T16:09:45;5.40;67.90
20005;DHT22;68409;45.498;-73.582;2023-03-13T16:12:12;5.50;68.00
20005;DHT22;68409;45.498;-73.582;2023-03-13T16:14:38;5.30;68.80
20005;DHT22;68409;45.498;-73.582;2023-03-13T16:17:18;5.40;69.20
20005;DHT22;68409;45.498;-73.582;2023-03-13T16:19:45;5.20;69.60
20005;DHT22;68409;45.498;-73.582;2023-03-13T16:22:12;5.20;70.60
20005;DHT22;68409;45.498;-73.582;2023-03-13T16:24:38;4.90;71.40
20005;DHT22;68409;45.498;-73.582;2023-03-13T16:27:18;5.00;72.20
20005;DHT22;68409;45.498;-73.582;2023-03-13T16:29:46;4.80;74.30
20005;DHT22;68409;45.498;-73.582;2023-03-13T16:32:15;4.50;75.70
20005;DHT22;68409;45.498;-73.582;2023-03-13T16:34:41;4.20;76.90
20005;DHT22;68409;45.498;-73.582;2023-03-13T16:37:12;4.10;77.90
20005;DHT22;68409;45.498;-73.582;2023-03-13T16:39:39;4.20;78.50
20005;DHT22;68409;45.498;-73.582;2023-03-13T16:42:05;4.20;78.20
20005;DHT22;68409;45.498;-73.582;2023-03-13T16:44:32;4.10;78.90
20005;DHT22;68409;45.498;-73.582;2023-03-13T16:46:58;4.00;79.20
20005;DHT22;68409;45.498;-73.582;2023-03-13T16:49:24;4.10;80.50
20005;DHT22;68409;45.498;-73.582;2023-03-13T16:51:51;4.00;80.00
20005;DHT22;68409;45.498;-73.582;2023-03-13T16:54:17;4.20;80.50
20005;DHT22;68409;45.498;-73.582;2023-03-13T16:56:43;4.30;80.30
20005;DHT22;68409;45.498;-73.582;2023-03-13T16:59:12;4.10;80.90
20005;DHT22;68409;45.498;-73.582;2023-03-13T17:01:38;4.30;81.70
20005;DHT22;68409;45.498;-73.582;2023-03-13T17:04:05;4.10;82.10
20005;DHT22;68409;45.498;-73.582;2023-03-13T17:06:36;4.40;83.00
20005;DHT22;68409;45.498;-73.582;2023-03-13T17:09:04;4.30;82.40
20005;DHT22;68409;45.498;-73.582;2023-03-13T17:11:32;4.40;82.20
20005;DHT22;68409;45.498;-73.582;2023-03-13T17:13:58;4.50;82.10
20005;DHT22;68409;45.498;-73.582;2023-03-13T17:16:29;4.50;81.60
20005;DHT22;68409;45.498;-73.582;2023-03-13T17:18:58;4.60;80.80
20005;DHT22;68409;45.498;-73.582;2023-03-13T17:21:27;4.70;81.10
20005;DHT22;68409;45.498;-73.582;2023-03-13T17:24:01;4.70;81.50
20005;DHT22;68409;45.498;-73.582;2023-03-13T17:26:32;4.60;81.60
20005;DHT22;68409;45.498;-73.582;2023-03-13T17:29:00;4.60;82.40
20005;DHT22;68409;45.498;-73.582;2023-03-13T17:31:27;4.60;82.90
20005;DHT22;68409;45.498;-73.582;2023-03-13T17:33:53;4.70;83.00
20005;DHT22;68409;45.498;-73.582;2023-03-13T17:36:26;4.90;81.00
20005;DHT22;68409;45.498;-73.582;2023-03-13T17:38:57;4.70;81.00
20005;DHT22;68409;45.498;-73.582;2023-03-13T17:41:29;4.70;82.00
20005;DHT22;68409;45.498;-73.582;2023-03-13T17:43:56;4.70;82.40
20005;DHT22;68409;45.498;-73.582;2023-03-13T17:48:52;4.90;81.40